createdAt,value
2023-05-21T00:01:28.664Z,42.50
2023-05-21T00:03:55.516Z,43.00
2023-05-21T00:06:22.333Z,42.60
2023-05-21T00:08:50.437Z,42.50
2023-05-21T00:11:17.167Z,42.50
2023-05-21T00:13:43.859Z,42.50
2023-05-21T00:16:10.632Z,42.00
2023-05-21T00:18:37.542Z,42.90
2023-05-21T00:21:04.228Z,42.20
2023-05-21T00:23:31.010Z,43.30
2023-05-21T00:25:59.373Z,42.90
2023-05-21T00:28:27.272Z,42.80
2023-05-21T00:30:53.970Z,42.70
2023-05-21T00:33:21.218Z,42.70
2023-05-21T00:35:47.968Z,42.70
2023-05-21T00:38:14.729Z,42.90
2023-05-21T00:40:41.541Z,43.20
2023-05-21T00:43:09.597Z,42.60
2023-05-21T00:45:36.653Z,42.80
2023-05-21T00:48:04.376Z,43.40
2023-05-21T00:50:31.286Z,43.60
2023-05-21T00:52:58.251Z,43.70
2023-05-21T00:55:25.263Z,43.60
2023-05-21T00:57:52.173Z,43.20
2023-05-21T01:00:20.980Z,43.20
2023-05-21T01:02:47.909Z,43.00
2023-05-21T01:05:14.703Z,42.80
2023-05-21T01:07:41.779Z,42.70
2023-05-21T01:10:11.207Z,43.40
2023-05-21T01:12:39.496Z,43.50
2023-05-21T01:15:07.540Z,43.00
2023-05-21T01:17:35.864Z,43.20
2023-05-21T01:20:03.388Z,43.30
2023-05-21T01:22:33.038Z,43.10
2023-05-21T01:25:01.142Z,43.40
2023-05-21T01:27:28.112Z,43.10
2023-05-21T01:29:55.520Z,43.20
2023-05-21T01:32:29.638Z,43.30
2023-05-21T01:35:00.537Z,43.40
2023-05-21T01:37:31.420Z,43.10
2023-05-21T01:40:05.679Z,43.30
2023-05-21T01:42:35.988Z,43.80
2023-05-21T01:45:03.965Z,43.50
2023-05-21T01:47:31.966Z,44.10
2023-05-21T01:49:59.584Z,43.60
2023-05-21T01:52:26.398Z,43.50
2023-05-21T01:54:53.130Z,43.70
2023-05-21T01:57:21.258Z,43.50
2023-05-21T01:59:48.092Z,43.40
2023-05-21T02:02:15.020Z,43.30
2023-05-21T02:04:41.844Z,43.60
2023-05-21T02:07:08.565Z,43.80
2023-05-21T02:09:35.237Z,43.70
2023-05-21T02:12:02.839Z,44.00
2023-05-21T02:14:30.896Z,44.80
2023-05-21T02:16:57.620Z,45.20
2023-05-21T02:19:24.470Z,45.80
2023-05-21T02:21:51.259Z,45.90
2023-05-21T02:24:18.000Z,45.30
2023-05-21T02:26:44.800Z,44.90
2023-05-21T02:29:11.511Z,45.00
2023-05-21T02:31:39.630Z,44.60
2023-05-21T02:34:06.457Z,44.30
2023-05-21T02:36:33.372Z,44.00
2023-05-21T02:39:00.175Z,44.00
2023-05-21T02:41:26.965Z,44.10
2023-05-21T02:43:53.634Z,44.10
2023-05-21T02:46:20.438Z,44.10
2023-05-21T02:48:48.498Z,44.10
2023-05-21T02:51:15.237Z,44.20
2023-05-21T02:53:41.951Z,43.80
2023-05-21T02:56:08.708Z,43.60
2023-05-21T02:58:35.482Z,44.30
2023-05-21T03:01:02.173Z,44.40
2023-05-21T03:03:29.041Z,43.90
2023-05-21T03:05:57.212Z,43.70
2023-05-21T03:08:23.985Z,43.80
2023-05-21T03:10:50.660Z,43.50
2023-05-21T03:13:17.467Z,43.90
2023-05-21T03:15:44.329Z,43.90
2023-05-21T03:18:11.270Z,44.10
2023-05-21T03:20:37.989Z,44.10
2023-05-21T03:23:06.093Z,44.00
2023-05-21T03:25:32.811Z,44.00
2023-05-21T03:27:59.524Z,43.50
2023-05-21T03:30:26.259Z,43.70
2023-05-21T03:32:53.127Z,44.50
2023-05-21T03:35:19.957Z,45.10
2023-05-21T03:37:46.666Z,45.50
2023-05-21T03:40:15.067Z,45.30
2023-05-21T03:42:41.863Z,45.40
2023-05-21T03:45:09.399Z,44.70
2023-05-21T03:47:36.179Z,44.40
2023-05-21T03:50:03.468Z,44.20
2023-05-21T03:52:30.229Z,44.60
2023-05-21T03:54:57.021Z,44.30
2023-05-21T03:57:25.056Z,44.40
2023-05-21T03:59:51.777Z,44.70
2023-05-21T04:02:18.715Z,44.80
2023-05-21T04:04:45.789Z,45.10
2023-05-21T04:07:12.580Z,45.60
2023-05-21T04:09:39.320Z,45.60
2023-05-21T04:12:06.434Z,46.10
2023-05-21T04:14:34.984Z,46.40
2023-05-21T04:17:01.664Z,46.30
2023-05-21T04:19:28.452Z,45.60
2023-05-21T04:21:55.322Z,46.70
2023-05-21T04:24:22.079Z,45.70
2023-05-21T04:26:48.790Z,45.10
2023-05-21T04:29:15.563Z,45.00
2023-05-21T04:31:43.973Z,44.90
2023-05-21T04:34:10.732Z,46.30
2023-05-21T04:36:37.493Z,45.80
2023-05-21T04:39:04.225Z,46.10
2023-05-21T04:41:30.933Z,46.00
2023-05-21T04:43:57.668Z,46.10
2023-05-21T04:46:24.426Z,46.20
2023-05-21T04:48:53.577Z,46.30
2023-05-21T04:51:20.526Z,47.10
2023-05-21T04:53:47.209Z,46.80
2023-05-21T04:56:14.409Z,46.60
2023-05-21T04:58:41.107Z,47.40
2023-05-21T05:01:07.853Z,46.80
2023-05-21T05:03:34.753Z,47.40
2023-05-21T05:06:02.785Z,46.90
2023-05-21T05:08:29.593Z,47.10
2023-05-21T05:10:56.345Z,47.60
2023-05-21T05:13:23.128Z,47.90
2023-05-21T05:15:51.052Z,48.00
2023-05-21T05:18:19.038Z,48.20
2023-05-21T05:20:45.858Z,48.30
2023-05-21T05:23:14.336Z,48.50
2023-05-21T05:25:41.042Z,49.00
2023-05-21T05:28:07.708Z,48.70
2023-05-21T05:30:34.461Z,48.50
2023-05-21T05:33:01.323Z,49.20
2023-05-21T05:35:28.008Z,49.00
2023-05-21T05:37:54.885Z,49.80
2023-05-21T05:40:22.944Z,49.60
2023-05-21T05:42:49.623Z,49.90
2023-05-21T05:45:16.395Z,49.80
2023-05-21T05:47:43.139Z,49.60
2023-05-21T05:50:10.459Z,49.60
2023-05-21T05:52:37.226Z,49.30
2023-05-21T05:55:04.679Z,49.30
2023-05-21T05:57:32.731Z,49.20
2023-05-21T05:59:59.403Z,49.50
2023-05-21T06:02:26.207Z,49.50
2023-05-21T06:04:53.056Z,50.10
2023-05-21T06:07:19.772Z,50.10
2023-05-21T06:09:46.469Z,50.60
2023-05-21T06:12:14.962Z,50.80
2023-05-21T06:14:45.165Z,50.80
2023-05-21T06:17:12.218Z,50.50
2023-05-21T06:19:39.518Z,50.60
2023-05-21T06:22:06.399Z,51.70
2023-05-21T06:24:33.294Z,51.30
2023-05-21T06:27:00.139Z,51.20
2023-05-21T06:29:26.828Z,51.60
2023-05-21T06:31:54.909Z,51.20
2023-05-21T06:34:21.722Z,51.60
2023-05-21T06:36:48.696Z,51.00
2023-05-21T06:39:15.411Z,51.00
2023-05-21T06:41:42.141Z,50.80
2023-05-21T06:44:09.196Z,50.80
2023-05-21T06:46:36.005Z,50.60
2023-05-21T06:49:04.150Z,51.10
2023-05-21T06:51:30.983Z,50.50
2023-05-21T06:53:57.718Z,50.50
2023-05-21T06:56:24.578Z,50.50
2023-05-21T06:58:51.350Z,50.10
2023-05-21T07:01:18.379Z,49.80
2023-05-21T07:03:45.263Z,50.10
2023-05-21T07:06:13.352Z,50.00
2023-05-21T07:08:40.084Z,49.70
2023-05-21T07:11:06.878Z,49.60
2023-05-21T07:13:35.933Z,49.30
2023-05-21T07:16:02.740Z,49.00
2023-05-21T07:18:29.512Z,49.10
2023-05-21T07:20:56.252Z,48.50
2023-05-21T07:23:24.360Z,48.40
2023-05-21T07:25:51.383Z,48.40
2023-05-21T07:28:18.110Z,47.70
2023-05-21T07:30:44.906Z,47.70
2023-05-21T07:33:11.757Z,47.70
2023-05-21T07:35:38.745Z,47.40
2023-05-21T07:38:05.659Z,47.10
2023-05-21T07:40:33.788Z,47.00
2023-05-21T07:43:00.592Z,46.90
2023-05-21T07:45:27.392Z,46.40
2023-05-21T07:47:54.202Z,46.40
2023-05-21T07:50:21.026Z,46.70
2023-05-21T07:52:47.846Z,46.50
2023-05-21T07:55:14.683Z,46.70
2023-05-21T07:57:42.800Z,46.80
2023-05-21T08:00:10.304Z,46.90
2023-05-21T08:02:37.486Z,47.30
2023-05-21T08:05:04.905Z,47.90
2023-05-21T08:07:31.688Z,48.40
2023-05-21T08:09:58.864Z,48.30
2023-05-21T08:12:25.739Z,48.70
2023-05-21T08:14:53.817Z,48.30
2023-05-21T08:17:20.538Z,48.50
2023-05-21T08:19:47.286Z,48.20
2023-05-21T08:22:14.025Z,48.20
2023-05-21T08:24:40.770Z,48.10
2023-05-21T08:27:07.629Z,47.60
2023-05-21T08:29:34.455Z,47.30
2023-05-21T08:32:02.692Z,47.10
2023-05-21T08:34:29.470Z,46.90
2023-05-21T08:36:56.251Z,47.00
2023-05-21T08:39:23.056Z,46.70
2023-05-21T08:41:54.981Z,46.70
2023-05-21T08:44:25.727Z,46.20
2023-05-21T08:46:54.853Z,45.70
2023-05-21T08:49:29.578Z,45.40
2023-05-21T08:51:57.300Z,45.00
2023-05-21T08:54:24.177Z,44.90
2023-05-21T08:56:52.839Z,44.60
2023-05-21T08:59:21.109Z,44.60
2023-05-21T09:01:49.324Z,44.30
2023-05-21T09:04:21.224Z,44.50
2023-05-21T09:06:51.224Z,44.00
2023-05-21T09:09:25.001Z,43.90
2023-05-21T09:11:51.756Z,44.00
2023-05-21T09:14:20.855Z,44.10
2023-05-21T09:16:47.583Z,44.10
2023-05-21T09:19:14.482Z,43.90
2023-05-21T09:21:41.392Z,44.00
2023-05-21T09:24:10.242Z,44.10
2023-05-21T09:26:36.944Z,44.00
2023-05-21T09:29:03.757Z,44.40
2023-05-21T09:31:30.607Z,44.70
2023-05-21T09:33:57.396Z,44.70
2023-05-21T09:36:24.605Z,44.10
2023-05-21T09:38:51.593Z,44.40
2023-05-21T09:41:21.896Z,43.90
2023-05-21T09:43:49.211Z,43.70
2023-05-21T09:46:16.265Z,44.20
2023-05-21T09:48:43.512Z,43.90
2023-05-21T09:51:12.101Z,43.20
2023-05-21T09:53:49.999Z,43.50
2023-05-21T09:56:20.794Z,43.20
2023-05-21T09:58:47.561Z,42.90
2023-05-21T10:01:14.457Z,42.90
2023-05-21T10:03:43.124Z,42.20
2023-05-21T10:06:11.368Z,42.10
2023-05-21T10:08:44.448Z,42.20
2023-05-21T10:11:12.236Z,41.80
2023-05-21T10:13:46.902Z,41.20
2023-05-21T10:16:14.155Z,40.70
2023-05-21T10:18:44.105Z,40.90
2023-05-21T10:21:11.124Z,40.90
2023-05-21T10:23:38.602Z,40.90
2023-05-21T10:26:06.897Z,40.30
2023-05-21T10:28:34.812Z,40.30
2023-05-21T10:31:04.162Z,40.10
2023-05-21T10:33:31.660Z,40.00
2023-05-21T10:35:58.704Z,39.60
2023-05-21T10:38:25.922Z,38.70
2023-05-21T10:40:53.980Z,38.80
2023-05-21T10:43:38.391Z,38.80
2023-05-21T10:46:36.398Z,38.20
2023-05-21T10:49:21.754Z,37.90
2023-05-21T10:51:59.059Z,37.90
2023-05-21T10:55:07.744Z,37.40
2023-05-21T10:58:02.259Z,37.90
2023-05-21T11:00:30.207Z,36.40
2023-05-21T11:02:59.044Z,36.80
2023-05-21T11:05:50.675Z,36.90
2023-05-21T11:08:24.861Z,37.10
2023-05-21T11:10:52.816Z,36.60
2023-05-21T11:13:19.609Z,35.70
2023-05-21T11:16:06.006Z,35.90
2023-05-21T11:18:58.222Z,35.60
2023-05-21T11:21:28.739Z,35.10
2023-05-21T11:23:56.393Z,35.30
2023-05-21T11:26:24.293Z,34.30
2023-05-21T11:28:51.300Z,35.40
2023-05-21T11:31:24.336Z,35.10
2023-05-21T11:34:11.754Z,34.80
2023-05-21T11:36:39.224Z,35.70
2023-05-21T11:39:09.408Z,34.70
2023-05-21T11:41:50.979Z,34.50
2023-05-21T11:44:17.745Z,34.70
2023-05-21T11:46:44.587Z,35.30
2023-05-21T11:49:13.165Z,34.80
2023-05-21T11:51:40.646Z,35.00
2023-05-21T11:54:09.222Z,35.40
2023-05-21T11:56:38.435Z,34.90
2023-05-21T11:59:05.242Z,35.80
2023-05-21T12:01:31.987Z,35.30
2023-05-21T12:03:58.858Z,35.10
2023-05-21T12:06:28.017Z,34.80
2023-05-21T12:08:55.000Z,35.40
2023-05-21T12:11:21.755Z,35.20
2023-05-21T12:13:48.616Z,35.60
2023-05-21T12:16:15.656Z,35.30
2023-05-21T12:18:42.547Z,35.20
2023-05-21T12:21:11.679Z,35.80
2023-05-21T12:23:40.661Z,33.90
2023-05-21T12:26:07.444Z,35.50
2023-05-21T12:28:34.381Z,35.50
2023-05-21T12:31:01.164Z,35.20
2023-05-21T12:33:34.199Z,34.80
2023-05-21T12:36:01.010Z,34.90
2023-05-21T12:38:30.401Z,33.80
2023-05-21T12:41:03.735Z,34.00
2023-05-21T12:43:31.995Z,32.60
2023-05-21T12:45:58.893Z,33.40
2023-05-21T12:48:25.692Z,33.30
2023-05-21T12:50:52.514Z,33.00
2023-05-21T12:53:19.243Z,33.60
2023-05-21T12:55:46.213Z,33.10
2023-05-21T12:58:14.688Z,33.00
2023-05-21T13:00:42.160Z,32.20
2023-05-21T13:03:08.992Z,32.30
2023-05-21T13:05:35.924Z,32.80
2023-05-21T13:08:02.751Z,31.90
2023-05-21T13:10:29.540Z,32.30
2023-05-21T13:12:56.342Z,31.80
2023-05-21T13:15:24.466Z,31.80
2023-05-21T13:17:52.553Z,31.60
2023-05-21T13:20:21.183Z,32.50
2023-05-21T13:22:49.760Z,32.40
2023-05-21T13:25:18.051Z,31.60
2023-05-21T13:27:45.253Z,32.00
2023-05-21T13:30:12.542Z,32.00
2023-05-21T13:32:41.842Z,32.50
2023-05-21T13:35:09.515Z,32.70
2023-05-21T13:37:36.485Z,32.40
2023-05-21T13:40:03.929Z,31.70
2023-05-21T13:42:30.707Z,32.00
2023-05-21T13:44:57.619Z,31.90
2023-05-21T13:47:24.465Z,32.10
2023-05-21T13:49:52.632Z,32.70
2023-05-21T13:52:20.232Z,32.20
2023-05-21T13:54:47.352Z,33.00
2023-05-21T13:57:14.288Z,32.80
2023-05-21T13:59:41.100Z,32.50
2023-05-21T14:02:09.210Z,32.10
2023-05-21T14:04:38.988Z,32.20
2023-05-21T14:07:07.684Z,32.00
2023-05-21T14:09:34.782Z,32.30
2023-05-21T14:12:01.647Z,32.40
2023-05-21T14:14:28.440Z,32.00
2023-05-21T14:16:55.357Z,31.70
2023-05-21T14:19:22.298Z,31.90
2023-05-21T14:21:51.429Z,31.80
2023-05-21T14:24:19.974Z,31.90
2023-05-21T14:26:46.729Z,31.80
2023-05-21T14:29:14.195Z,32.40
2023-05-21T14:31:41.086Z,31.80
2023-05-21T14:34:07.895Z,31.50
2023-05-21T14:36:34.768Z,31.40
2023-05-21T14:39:01.605Z,31.90
2023-05-21T14:41:29.816Z,31.90
2023-05-21T14:43:56.560Z,31.40
2023-05-21T14:46:23.351Z,31.40
2023-05-21T14:48:50.277Z,31.30
2023-05-21T14:51:17.051Z,31.70
2023-05-21T14:53:43.866Z,30.70
2023-05-21T14:56:10.695Z,30.70
2023-05-21T14:58:38.789Z,30.20
2023-05-21T15:01:05.734Z,30.00
2023-05-21T15:03:32.530Z,29.90
2023-05-21T15:05:59.534Z,30.00
2023-05-21T15:08:26.267Z,30.00
2023-05-21T15:10:52.992Z,29.70
2023-05-21T15:13:19.797Z,30.30
2023-05-21T15:15:47.925Z,29.50
2023-05-21T15:18:14.758Z,28.70
2023-05-21T15:20:41.484Z,29.40
2023-05-21T15:23:16.672Z,29.10
2023-05-21T15:25:44.308Z,28.90
2023-05-21T15:28:11.052Z,28.40
2023-05-21T15:30:37.751Z,28.50
2023-05-21T15:33:05.850Z,27.90
2023-05-21T15:35:32.959Z,28.50
2023-05-21T15:37:59.872Z,28.20
2023-05-21T15:40:27.391Z,28.20
2023-05-21T15:42:54.343Z,28.90
2023-05-21T15:45:21.240Z,28.30
2023-05-21T15:47:48.084Z,28.80
2023-05-21T15:50:16.394Z,28.80
2023-05-21T15:52:43.091Z,28.80
2023-05-21T15:55:10.090Z,28.90
2023-05-21T15:57:36.889Z,28.70
2023-05-21T16:00:04.111Z,28.60
2023-05-21T16:02:30.917Z,28.70
2023-05-21T16:04:57.784Z,28.60
2023-05-21T16:07:25.822Z,28.70
2023-05-21T16:09:52.543Z,28.20
2023-05-21T16:12:19.281Z,28.60
2023-05-21T16:14:48.390Z,28.30
2023-05-21T16:17:15.119Z,28.90
2023-05-21T16:19:41.854Z,29.00
2023-05-21T16:22:10.632Z,28.60
2023-05-21T16:24:38.997Z,28.60
2023-05-21T16:27:05.931Z,28.30
2023-05-21T16:29:32.690Z,28.80
2023-05-21T16:31:59.409Z,29.10
2023-05-21T16:34:26.161Z,29.50
2023-05-21T16:36:52.880Z,29.50
2023-05-21T16:39:19.589Z,29.50
2023-05-21T16:41:47.709Z,29.00
2023-05-21T16:44:14.591Z,29.20
2023-05-21T16:46:41.389Z,29.20
2023-05-21T16:49:08.122Z,29.30
2023-05-21T16:51:34.885Z,29.40
2023-05-21T16:54:01.622Z,29.60
2023-05-21T16:56:28.349Z,29.70
2023-05-21T16:58:56.416Z,29.70
2023-05-21T17:01:23.233Z,29.10
2023-05-21T17:03:50.162Z,29.60
2023-05-21T17:06:17.084Z,30.40
2023-05-21T17:08:43.995Z,30.10
2023-05-21T17:11:10.743Z,30.70
2023-05-21T17:13:37.492Z,31.10
2023-05-21T17:16:05.903Z,30.60
2023-05-21T17:19:55.791Z,30.80
2023-05-21T17:21:22.092Z,31.30
2023-05-21T17:23:48.869Z,31.30
2023-05-21T17:26:15.593Z,31.40
2023-05-21T17:28:42.336Z,31.40
2023-05-21T17:31:10.451Z,31.30
2023-05-21T17:33:37.215Z,31.40
2023-05-21T17:36:15.993Z,32.00
2023-05-21T17:38:42.773Z,31.50
2023-05-21T17:41:09.629Z,31.40
2023-05-21T17:43:36.308Z,31.90
2023-05-21T17:46:03.034Z,31.90
2023-05-21T17:48:31.185Z,32.30
2023-05-21T17:50:57.904Z,32.10
2023-05-21T17:53:24.580Z,32.20
2023-05-21T17:55:51.277Z,32.50
2023-05-21T17:58:17.987Z,32.80
2023-05-21T18:00:44.936Z,32.90
2023-05-21T18:03:11.786Z,32.90
2023-05-21T18:05:39.960Z,32.90
2023-05-21T18:08:06.802Z,32.90
2023-05-21T18:10:33.601Z,33.20
2023-05-21T18:13:00.318Z,33.40
2023-05-21T18:15:27.170Z,33.30
2023-05-21T18:17:53.913Z,33.50
2023-05-21T18:20:20.650Z,33.60
2023-05-21T18:22:48.681Z,33.80
2023-05-21T18:25:15.416Z,33.60
2023-05-21T18:27:42.121Z,33.60
2023-05-21T18:30:09.750Z,33.90
2023-05-21T18:32:36.525Z,33.90
2023-05-21T18:35:03.352Z,34.00
2023-05-21T18:37:30.122Z,34.20
2023-05-21T18:39:58.209Z,34.30
2023-05-21T18:42:25.331Z,34.30
2023-05-21T18:44:52.087Z,34.30
2023-05-21T18:47:18.773Z,34.40
2023-05-21T18:49:45.476Z,34.60
2023-05-21T18:52:12.149Z,34.60
2023-05-21T18:54:38.836Z,34.80
2023-05-21T18:57:07.013Z,34.90
2023-05-21T18:59:33.873Z,35.00
2023-05-21T19:02:00.676Z,34.90
2023-05-21T19:04:27.476Z,35.10
2023-05-21T19:06:54.170Z,35.10
2023-05-21T19:09:20.861Z,35.10
2023-05-21T19:11:47.553Z,34.90
2023-05-21T19:14:15.576Z,34.80
2023-05-21T19:16:42.359Z,34.90
2023-05-21T19:19:09.151Z,34.90
2023-05-21T19:21:35.987Z,34.90
2023-05-21T19:24:05.431Z,35.10
2023-05-21T19:26:32.638Z,35.20
2023-05-21T19:28:59.385Z,35.20
2023-05-21T19:31:27.513Z,35.40
2023-05-21T19:33:54.305Z,35.40
2023-05-21T19:36:21.413Z,35.40
2023-05-21T19:38:48.667Z,35.50
2023-05-21T19:41:15.567Z,35.70
2023-05-21T19:43:42.329Z,35.80
2023-05-21T19:46:09.561Z,35.90
2023-05-21T19:48:37.741Z,36.00
2023-05-21T19:51:04.624Z,36.10
2023-05-21T19:53:31.304Z,36.20
2023-05-21T19:55:58.030Z,36.40
2023-05-21T19:58:24.765Z,36.70
2023-05-21T20:00:51.550Z,36.80
2023-05-21T20:03:18.450Z,36.90
2023-05-21T20:05:46.632Z,36.80
2023-05-21T20:08:13.423Z,36.90
2023-05-21T20:10:40.259Z,37.00
2023-05-21T20:13:07.072Z,37.20
2023-05-21T20:15:33.773Z,37.30
2023-05-21T20:18:00.706Z,37.40
2023-05-21T20:20:31.045Z,37.50
2023-05-21T20:22:59.070Z,37.60
2023-05-21T20:25:25.796Z,37.60
2023-05-21T20:27:52.457Z,37.70
2023-05-21T20:30:19.312Z,37.70
2023-05-21T20:32:46.120Z,37.80
2023-05-21T20:35:12.843Z,37.90
2023-05-21T20:37:39.666Z,38.00
2023-05-21T20:40:09.653Z,38.10
2023-05-21T20:42:36.364Z,38.30
2023-05-21T20:45:03.576Z,38.20
2023-05-21T20:47:30.368Z,38.30
2023-05-21T20:49:57.243Z,39.20
2023-05-21T20:52:24.044Z,38.30
2023-05-21T20:54:51.073Z,38.40
2023-05-21T20:57:19.087Z,38.40
2023-05-21T20:59:45.770Z,38.60
2023-05-21T21:02:12.494Z,38.50
2023-05-21T21:04:39.283Z,38.50
2023-05-21T21:07:06.102Z,38.70
2023-05-21T21:09:32.790Z,38.80
2023-05-21T21:11:59.572Z,38.70
2023-05-21T21:14:28.370Z,38.70
2023-05-21T21:16:56.089Z,38.70
2023-05-21T21:19:22.829Z,38.90
2023-05-21T21:21:49.781Z,39.00
2023-05-21T21:24:16.550Z,38.90
2023-05-21T21:26:43.348Z,39.00
2023-05-21T21:29:10.048Z,38.90
2023-05-21T21:31:38.188Z,39.10
2023-05-21T21:34:05.112Z,39.00
2023-05-21T21:36:31.992Z,39.00
2023-05-21T21:38:58.810Z,39.00
2023-05-21T21:41:25.639Z,39.20
2023-05-21T21:43:52.359Z,39.30
2023-05-21T21:46:19.128Z,39.30
2023-05-21T21:48:47.184Z,39.20
2023-05-21T21:51:14.012Z,39.20
2023-05-21T21:53:40.900Z,39.20
2023-05-21T21:56:07.676Z,39.40
2023-05-21T21:58:34.361Z,39.30
2023-05-21T22:01:01.100Z,39.40
2023-05-21T22:03:27.812Z,39.40
2023-05-21T22:05:55.917Z,39.40
2023-05-21T22:08:22.632Z,39.50
2023-05-21T22:10:49.457Z,39.70
2023-05-21T22:13:16.171Z,39.60
2023-05-21T22:15:42.874Z,39.50
2023-05-21T22:18:09.692Z,39.60
2023-05-21T22:20:36.674Z,39.90
2023-05-21T22:23:05.660Z,39.80
2023-05-21T22:25:32.354Z,40.00
2023-05-21T22:27:59.077Z,39.80
2023-05-21T22:30:25.771Z,39.80
2023-05-21T22:32:52.564Z,39.80
2023-05-21T22:35:19.577Z,39.70
2023-05-21T22:37:46.411Z,39.60
2023-05-21T22:40:14.488Z,39.70
2023-05-21T22:42:41.342Z,39.70
2023-05-21T22:45:08.974Z,39.70
2023-05-21T22:47:35.748Z,39.60
2023-05-21T22:50:02.899Z,39.50
2023-05-21T22:52:29.757Z,39.40
2023-05-21T22:54:56.514Z,39.50
2023-05-21T22:57:24.656Z,39.40
2023-05-21T22:59:51.351Z,39.30
2023-05-21T23:02:18.099Z,39.30
2023-05-21T23:04:44.872Z,39.40
2023-05-21T23:07:12.031Z,39.30
2023-05-21T23:09:38.806Z,39.10
2023-05-21T23:12:06.401Z,39.20
2023-05-21T23:14:34.483Z,39.20
2023-05-21T23:17:01.233Z,39.20
2023-05-21T23:19:28.122Z,39.10
2023-05-21T23:21:55.138Z,39.20
2023-05-21T23:24:21.843Z,39.20
2023-05-21T23:26:48.509Z,39.10
2023-05-21T23:29:15.219Z,39.00
2023-05-21T23:31:43.407Z,39.10
2023-05-21T23:34:10.235Z,39.10
2023-05-21T23:36:36.946Z,39.10
2023-05-21T23:39:03.991Z,39.10
2023-05-21T23:41:30.779Z,39.10
2023-05-21T23:43:57.489Z,39.10
2023-05-21T23:46:24.407Z,39.10
2023-05-21T23:48:52.495Z,39.10
2023-05-21T23:51:19.225Z,39.20
2023-05-21T23:53:45.949Z,39.10
2023-05-21T23:56:12.714Z,39.20
2023-05-21T23:58:39.474Z,39.20
